Time;durP1;ratioP1;P1;durP2;ratioP2;P2;SDS_P1;SDS_P2;PMS_P1;PMS_P2;Temp;Humidity;BMP_temperature;BMP_pressure;BME280_temperature;BME280_humidity;BME280_pressure;Samples;Min_cycle;Max_cycle;Signal;HPM_P1;HPM_P2
2022/03/15 00:00:07;;;;;;;7.60;4.20;;;;;;;;;;506663;29;1503;-76
2022/03/15 00:00:23;;;;;;;8.60;4.25;;;;;;;;;;505794;29;1226;-75
2022/03/15 00:00:39;;;;;;;9.20;4.40;;;;;;;;;;506800;29;885;-75
2022/03/15 00:00:54;;;;;;;8.65;4.53;;;;;;;;;;508727;29;782;-75
2022/03/15 00:01:10;;;;;;;9.30;4.57;;;;;;;;;;509919;29;726;-75
2022/03/15 00:01:25;;;;;;;8.85;4.45;;;;;;;;;;510092;29;854;-75
2022/03/15 00:01:41;;;;;;;8.45;4.22;;;;;;;;;;509692;29;1377;-75
2022/03/15 00:01:56;;;;;;;9.43;4.23;;;;;;;;;;510355;29;868;-75
2022/03/15 00:02:12;;;;;;;9.15;4.40;;;;;;;;;;511653;29;1187;-75
2022/03/15 00:02:28;;;;;;;8.77;4.60;;;;;;;;;;511492;29;805;-75
2022/03/15 00:02:43;;;;;;;9.02;4.50;;;;;;;;;;511470;29;836;-75
2022/03/15 00:02:59;;;;;;;9.93;4.40;;;;;;;;;;511503;29;760;-75
2022/03/15 00:03:14;;;;;;;9.50;4.27;;;;;;;;;;511270;29;1532;-75
2022/03/15 00:03:30;;;;;;;7.85;4.25;;;;;;;;;;511729;29;834;-75
2022/03/15 00:03:46;;;;;;;7.33;4.40;;;;;;;;;;511660;29;841;-75
2022/03/15 00:04:01;;;;;;;7.07;4.28;;;;;;;;;;509697;29;1296;-75
2022/03/15 00:04:17;;;;;;;6.63;4.20;;;;;;;;;;510494;29;1376;-75
2022/03/15 00:04:32;;;;;;;8.30;4.27;;;;;;;;;;511841;29;730;-75
2022/03/15 00:04:48;;;;;;;9.15;4.30;;;;;;;;;;511331;29;848;-75
2022/03/15 00:05:04;;;;;;;9.10;4.57;;;;;;;;;;511771;29;821;-75
2022/03/15 00:05:20;;;;;;;8.30;4.65;;;;;;;;;;511768;29;1158;-76
2022/03/15 00:05:35;;;;;;;8.13;4.57;;;;;;;;;;511892;29;1911;-75
2022/03/15 00:05:51;;;;;;;7.45;4.63;;;;;;;;;;511643;29;778;-75
2022/03/15 00:06:07;;;;;;;6.47;4.28;;;;;;;;;;510141;29;1345;-75
2022/03/15 00:06:22;;;;;;;7.47;4.40;;;;;;;;;;509695;29;1153;-75
2022/03/15 00:06:37;;;;;;;9.70;4.40;;;;;;;;;;508160;29;1269;-75
2022/03/15 00:06:53;;;;;;;9.88;4.20;;;;;;;;;;509637;29;1295;-75
2022/03/15 00:07:13;;;;;;;8.23;4.20;;;;;;;;;;508766;29;1794;-75
2022/03/15 00:07:28;;;;;;;8.15;3.90;;;;;;;;;;508138;29;829;-75
2022/03/15 00:07:44;;;;;;;9.10;4.13;;;;;;;;;;507936;29;925;-75
2022/03/15 00:08:00;;;;;;;8.63;4.28;;;;;;;;;;509045;29;853;-75
2022/03/15 00:08:17;;;;;;;8.20;4.33;;;;;;;;;;508470;29;1506;-75
2022/03/15 00:08:33;;;;;;;7.93;4.20;;;;;;;;;;511007;29;833;-76
2022/03/15 00:08:48;;;;;;;8.00;4.30;;;;;;;;;;511415;29;773;-75
2022/03/15 00:09:03;;;;;;;9.75;4.93;;;;;;;;;;512880;28;765;-75
2022/03/15 00:09:19;;;;;;;9.47;4.83;;;;;;;;;;513907;28;746;-75
2022/03/15 00:09:35;;;;;;;7.53;4.47;;;;;;;;;;511480;29;1268;-75
2022/03/15 00:09:50;;;;;;;8.00;4.13;;;;;;;;;;511301;29;900;-75
2022/03/15 00:10:06;;;;;;;7.70;3.90;;;;;;;;;;510435;29;1198;-75
2022/03/15 00:10:22;;;;;;;8.35;4.00;;;;;;;;;;511034;29;833;-76
2022/03/15 00:10:37;;;;;;;8.63;4.03;;;;;;;;;;510172;29;683;-75
2022/03/15 00:10:57;;;;;;;7.47;4.00;;;;;;;;;;509987;29;1265;-75
2022/03/15 00:11:13;;;;;;;7.47;4.10;;;;;;;;;;509597;29;828;-75
2022/03/15 00:11:29;;;;;;;6.72;4.03;;;;;;;;;;511101;29;869;-75
2022/03/15 00:11:44;;;;;;;6.45;4.10;;;;;;;;;;512064;29;877;-75
2022/03/15 00:12:00;;;;;;;7.77;4.20;;;;;;;;;;511976;28;1294;-75
2022/03/15 00:12:15;;;;;;;7.82;4.10;;;;;;;;;;514075;28;786;-75
2022/03/15 00:12:31;;;;;;;6.83;3.90;;;;;;;;;;513858;28;746;-75
2022/03/15 00:12:47;;;;;;;7.53;4.05;;;;;;;;;;513894;28;801;-75
2022/03/15 00:13:03;;;;;;;9.18;4.30;;;;;;;;;;512135;29;1570;-75
2022/03/15 00:13:20;;;;;;;9.43;4.22;;;;;;;;;;509137;29;1545;-75
2022/03/15 00:13:38;;;;;;;8.82;4.10;;;;;;;;;;510195;29;861;-75
2022/03/15 00:13:53;;;;;;;7.57;4.10;;;;;;;;;;507008;29;1456;-75
2022/03/15 00:14:14;;;;;;;9.00;4.30;;;;;;;;;;507911;29;810;-75
2022/03/15 00:14:29;;;;;;;10.30;4.40;;;;;;;;;;507950;29;896;-75
2022/03/15 00:14:45;;;;;;;9.50;4.30;;;;;;;;;;506011;29;1269;-75
2022/03/15 00:15:01;;;;;;;9.77;4.03;;;;;;;;;;507157;29;837;-75
2022/03/15 00:15:16;;;;;;;8.23;4.10;;;;;;;;;;507296;29;1321;-76
2022/03/15 00:15:32;;;;;;;7.40;4.57;;;;;;;;;;507781;29;1380;-74
2022/03/15 00:15:48;;;;;;;9.43;5.30;;;;;;;;;;508988;29;1238;-75
2022/03/15 00:16:04;;;;;;;11.50;5.43;;;;;;;;;;509829;29;699;-75
2022/03/15 00:16:19;;;;;;;9.95;5.80;;;;;;;;;;509917;29;821;-75
2022/03/15 00:16:35;;;;;;;8.43;6.40;;;;;;;;;;509938;29;901;-75
2022/03/15 00:16:50;;;;;;;7.50;5.10;;;;;;;;;;510095;29;742;-75
2022/03/15 00:17:05;;;;;;;6.40;3.97;;;;;;;;;;510535;29;750;-75
2022/03/15 00:17:22;;;;;;;6.88;3.92;;;;;;;;;;511742;29;765;-75
2022/03/15 00:17:47;;;;;;;6.65;4.00;;;;;;;;;;512541;28;1495;-75
2022/03/15 00:18:03;;;;;;;6.32;4.10;;;;;;;;;;509869;29;837;-74
2022/03/15 00:18:21;;;;;;;8.20;4.40;;;;;;;;;;508934;29;1498;-75
2022/03/15 00:18:37;;;;;;;10.88;4.72;;;;;;;;;;510256;29;809;-75
2022/03/15 00:18:52;;;;;;;10.43;4.70;;;;;;;;;;510049;29;1285;-75
2022/03/15 00:19:08;;;;;;;8.55;4.32;;;;;;;;;;510147;29;1319;-75
2022/03/15 00:19:24;;;;;;;8.85;4.20;;;;;;;;;;509852;29;766;-74
2022/03/15 00:19:39;;;;;;;9.10;4.40;;;;;;;;;;509933;29;808;-74
2022/03/15 00:19:55;;;;;;;9.68;4.45;;;;;;;;;;510338;29;1430;-74
2022/03/15 00:20:18;;;;;;;8.57;4.57;;;;;;;;;;512944;28;785;-74
2022/03/15 00:20:34;;;;;;;6.85;4.38;;;;;;;;;;512234;29;1012;-74
2022/03/15 00:20:49;;;;;;;7.60;4.28;;;;;;;;;;512180;28;999;-75
2022/03/15 00:21:09;;;;;;;8.95;4.50;;;;;;;;;;512125;29;873;-75
2022/03/15 00:21:25;;;;;;;8.48;4.25;;;;;;;;;;509857;29;1273;-74
2022/03/15 00:21:40;;;;;;;8.07;4.03;;;;;;;;;;507625;29;1351;-75
2022/03/15 00:21:55;;;;;;;8.50;4.00;;;;;;;;;;507949;29;1167;-75
2022/03/15 00:22:11;;;;;;;7.97;4.00;;;;;;;;;;507992;29;841;-75
2022/03/15 00:22:27;;;;;;;6.90;4.00;;;;;;;;;;507995;29;840;-75
2022/03/15 00:22:42;;;;;;;7.63;4.07;;;;;;;;;;506283;29;1266;-75
2022/03/15 00:22:59;;;;;;;7.85;4.22;;;;;;;;;;504407;29;1206;-75
2022/03/15 00:23:14;;;;;;;7.45;4.28;;;;;;;;;;505189;29;1487;-75
2022/03/15 00:23:31;;;;;;;6.50;3.97;;;;;;;;;;504746;29;1116;-74
2022/03/15 00:23:46;;;;;;;6.90;3.80;;;;;;;;;;506959;29;838;-75
2022/03/15 00:24:02;;;;;;;7.70;3.83;;;;;;;;;;507714;29;880;-75
2022/03/15 00:24:17;;;;;;;6.40;3.80;;;;;;;;;;508997;29;771;-74
2022/03/15 00:24:33;;;;;;;6.53;3.90;;;;;;;;;;510345;29;758;-75
2022/03/15 00:24:49;;;;;;;7.28;3.80;;;;;;;;;;509481;29;1330;-75
2022/03/15 00:25:07;;;;;;;7.22;3.70;;;;;;;;;;510257;29;786;-75
2022/03/15 00:25:23;;;;;;;7.13;3.88;;;;;;;;;;512094;28;911;-75
2022/03/15 00:25:38;;;;;;;6.57;3.95;;;;;;;;;;513855;28;1915;-75
2022/03/15 00:25:54;;;;;;;7.83;4.13;;;;;;;;;;513906;28;715;-75
2022/03/15 00:26:09;;;;;;;8.38;4.13;;;;;;;;;;513975;28;813;-75
2022/03/15 00:26:24;;;;;;;7.43;3.97;;;;;;;;;;513928;28;809;-75
2022/03/15 00:26:40;;;;;;;8.03;4.00;;;;;;;;;;514826;28;1178;-75
2022/03/15 00:26:55;;;;;;;8.80;4.07;;;;;;;;;;516030;28;719;-75
2022/03/15 00:27:10;;;;;;;8.37;4.00;;;;;;;;;;515994;28;1274;-75
2022/03/15 00:27:26;;;;;;;7.80;3.85;;;;;;;;;;515707;28;766;-75
2022/03/15 00:27:41;;;;;;;8.00;3.73;;;;;;;;;;515634;28;796;-74
2022/03/15 00:27:57;;;;;;;7.03;3.70;;;;;;;;;;515656;28;761;-75
2022/03/15 00:28:12;;;;;;;6.28;3.80;;;;;;;;;;514694;28;1613;-75
2022/03/15 00:28:29;;;;;;;7.33;3.93;;;;;;;;;;514728;28;1049;-75
2022/03/15 00:28:44;;;;;;;7.72;3.72;;;;;;;;;;513020;28;1076;-75
2022/03/15 00:28:59;;;;;;;7.93;3.80;;;;;;;;;;514229;28;934;-75
2022/03/15 00:29:17;;;;;;;8.13;3.85;;;;;;;;;;513887;28;1156;-75
2022/03/15 00:29:32;;;;;;;7.43;3.53;;;;;;;;;;513921;28;859;-75
2022/03/15 00:29:48;;;;;;;6.57;3.58;;;;;;;;;;511335;29;1387;-75
2022/03/15 00:30:06;;;;;;;8.67;3.90;;;;;;;;;;511518;29;848;-75
2022/03/15 00:30:23;;;;;;;8.65;3.90;;;;;;;;;;511055;29;1439;-75
2022/03/15 00:30:38;;;;;;;6.53;3.72;;;;;;;;;;509960;29;1499;-75
2022/03/15 00:30:54;;;;;;;7.57;3.80;;;;;;;;;;509863;29;1392;-75
2022/03/15 00:31:09;;;;;;;8.03;4.00;;;;;;;;;;507801;29;1286;-74
2022/03/15 00:31:24;;;;;;;7.73;4.13;;;;;;;;;;507773;29;762;-75
2022/03/15 00:31:39;;;;;;;7.50;3.97;;;;;;;;;;508790;29;928;-74
2022/03/15 00:31:55;;;;;;;8.30;3.90;;;;;;;;;;509864;29;793;-75
2022/03/15 00:32:11;;;;;;;7.93;4.03;;;;;;;;;;509757;29;788;-75
2022/03/15 00:32:26;;;;;;;5.97;3.77;;;;;;;;;;508114;29;1183;-75
2022/03/15 00:32:43;;;;;;;7.13;3.60;;;;;;;;;;510093;29;896;-75
2022/03/15 00:32:58;;;;;;;7.38;3.67;;;;;;;;;;510399;29;868;-75
2022/03/15 00:33:15;;;;;;;7.00;3.95;;;;;;;;;;512054;28;1453;-75
2022/03/15 00:33:30;;;;;;;7.07;4.05;;;;;;;;;;512984;28;899;-75
2022/03/15 00:33:46;;;;;;;6.35;3.85;;;;;;;;;;512869;28;800;-75
2022/03/15 00:34:01;;;;;;;6.97;3.90;;;;;;;;;;511396;29;816;-75
2022/03/15 00:34:16;;;;;;;6.70;3.90;;;;;;;;;;512797;28;916;-75
2022/03/15 00:34:32;;;;;;;6.13;3.80;;;;;;;;;;513485;28;761;-75
2022/03/15 00:34:47;;;;;;;7.27;4.00;;;;;;;;;;513807;28;1443;-75
2022/03/15 00:35:07;;;;;;;7.07;4.17;;;;;;;;;;513931;28;1149;-75
2022/03/15 00:35:24;;;;;;;7.80;3.80;;;;;;;;;;512130;29;1349;-75
2022/03/15 00:35:39;;;;;;;8.93;3.80;;;;;;;;;;512232;29;888;-75
2022/03/15 00:35:55;;;;;;;7.93;3.83;;;;;;;;;;512176;29;781;-75
2022/03/15 00:36:10;;;;;;;7.00;4.00;;;;;;;;;;511544;29;754;-75
2022/03/15 00:36:25;;;;;;;6.57;3.97;;;;;;;;;;509770;29;1388;-75
2022/03/15 00:36:41;;;;;;;6.20;3.70;;;;;;;;;;510032;29;777;-75
2022/03/15 00:36:57;;;;;;;6.80;3.83;;;;;;;;;;511239;29;861;-75
2022/03/15 00:37:12;;;;;;;7.87;4.17;;;;;;;;;;509983;29;1147;-75
2022/03/15 00:37:28;;;;;;;7.03;4.07;;;;;;;;;;508005;29;1278;-75
2022/03/15 00:37:44;;;;;;;7.00;3.90;;;;;;;;;;506036;29;1181;-75
2022/03/15 00:37:59;;;;;;;7.30;3.83;;;;;;;;;;504224;29;1796;-75
2022/03/15 00:38:15;;;;;;;7.43;3.93;;;;;;;;;;502598;29;1517;-75
2022/03/15 00:38:30;;;;;;;7.47;3.90;;;;;;;;;;504175;29;1219;-75
2022/03/15 00:38:45;;;;;;;6.20;3.60;;;;;;;;;;503337;29;1086;-75
2022/03/15 00:39:01;;;;;;;6.57;3.80;;;;;;;;;;502768;29;992;-75
2022/03/15 00:39:16;;;;;;;7.60;4.10;;;;;;;;;;504820;29;1201;-75
2022/03/15 00:39:32;;;;;;;7.80;4.00;;;;;;;;;;504215;29;1389;-75
2022/03/15 00:39:47;;;;;;;7.47;4.13;;;;;;;;;;506822;29;1464;-75
2022/03/15 00:40:04;;;;;;;7.93;4.30;;;;;;;;;;507508;29;1436;-75
2022/03/15 00:40:21;;;;;;;8.32;4.18;;;;;;;;;;508929;29;1407;-75
2022/03/15 00:40:36;;;;;;;7.22;4.03;;;;;;;;;;509814;29;968;-75
2022/03/15 00:40:51;;;;;;;7.00;3.90;;;;;;;;;;509991;29;908;-75
2022/03/15 00:41:08;;;;;;;7.20;4.00;;;;;;;;;;508599;29;1291;-75
2022/03/15 00:41:23;;;;;;;6.82;4.15;;;;;;;;;;510794;29;896;-75
2022/03/15 00:41:38;;;;;;;6.30;3.90;;;;;;;;;;509887;29;1236;-75
2022/03/15 00:41:53;;;;;;;7.13;3.90;;;;;;;;;;510080;29;849;-74
2022/03/15 00:42:09;;;;;;;6.80;4.00;;;;;;;;;;509974;29;872;-75
2022/03/15 00:42:24;;;;;;;6.68;4.00;;;;;;;;;;509335;29;853;-75
2022/03/15 00:42:40;;;;;;;7.37;4.10;;;;;;;;;;509860;29;1153;-75
2022/03/15 00:42:55;;;;;;;6.93;4.03;;;;;;;;;;509984;29;1352;-75
2022/03/15 00:43:11;;;;;;;6.13;3.92;;;;;;;;;;510026;29;1524;-75
2022/03/15 00:43:26;;;;;;;7.03;3.83;;;;;;;;;;511934;29;853;-75
2022/03/15 00:43:41;;;;;;;7.90;3.67;;;;;;;;;;512042;29;809;-74
2022/03/15 00:43:56;;;;;;;7.17;3.70;;;;;;;;;;509728;29;1107;-75
2022/03/15 00:44:12;;;;;;;6.63;3.95;;;;;;;;;;507901;29;1329;-74
2022/03/15 00:44:27;;;;;;;5.67;3.73;;;;;;;;;;506022;29;1268;-75
2022/03/15 00:44:43;;;;;;;6.23;3.77;;;;;;;;;;508304;29;932;-75
2022/03/15 00:45:01;;;;;;;7.15;3.97;;;;;;;;;;509799;29;774;-75
2022/03/15 00:45:17;;;;;;;7.18;3.90;;;;;;;;;;510120;29;1370;-75
2022/03/15 00:45:32;;;;;;;7.90;3.92;;;;;;;;;;509907;29;1907;-75
2022/03/15 00:45:47;;;;;;;7.77;3.80;;;;;;;;;;510759;29;995;-75
2022/03/15 00:46:03;;;;;;;7.82;3.85;;;;;;;;;;511860;29;805;-75
2022/03/15 00:46:18;;;;;;;7.23;3.93;;;;;;;;;;509833;29;1316;-75
2022/03/15 00:46:33;;;;;;;7.87;3.90;;;;;;;;;;509682;29;818;-75
2022/03/15 00:46:49;;;;;;;8.35;4.05;;;;;;;;;;510108;29;953;-75
2022/03/15 00:47:05;;;;;;;9.17;4.00;;;;;;;;;;510120;29;924;-75
2022/03/15 00:47:21;;;;;;;9.07;3.75;;;;;;;;;;512062;29;750;-75
2022/03/15 00:47:36;;;;;;;8.43;3.73;;;;;;;;;;510130;29;1139;-75
2022/03/15 00:47:52;;;;;;;8.02;3.80;;;;;;;;;;510077;29;817;-75
2022/03/15 00:48:08;;;;;;;7.05;3.83;;;;;;;;;;510312;28;1551;-75
2022/03/15 00:48:24;;;;;;;7.28;3.80;;;;;;;;;;512611;28;940;-75
2022/03/15 00:48:39;;;;;;;8.10;3.80;;;;;;;;;;511456;29;1232;-75
2022/03/15 00:48:54;;;;;;;8.27;3.90;;;;;;;;;;510172;29;857;-75
2022/03/15 00:49:09;;;;;;;7.30;4.00;;;;;;;;;;510161;29;942;-75
2022/03/15 00:49:26;;;;;;;6.83;3.90;;;;;;;;;;512254;28;840;-75
2022/03/15 00:49:41;;;;;;;7.30;3.80;;;;;;;;;;513471;28;820;-74
2022/03/15 00:49:56;;;;;;;6.97;3.90;;;;;;;;;;511631;29;860;-75
2022/03/15 00:50:12;;;;;;;6.57;3.97;;;;;;;;;;512126;28;1397;-75
2022/03/15 00:50:29;;;;;;;7.90;3.93;;;;;;;;;;512170;29;896;-75
2022/03/15 00:50:45;;;;;;;8.75;4.00;;;;;;;;;;511594;28;1284;-74
2022/03/15 00:51:00;;;;;;;7.67;3.83;;;;;;;;;;511970;29;769;-75
2022/03/15 00:51:15;;;;;;;6.80;3.70;;;;;;;;;;511774;29;832;-74
2022/03/15 00:51:33;;;;;;;7.17;3.70;;;;;;;;;;509845;29;1181;-75
2022/03/15 00:51:49;;;;;;;6.60;3.50;;;;;;;;;;509902;29;1016;-75
2022/03/15 00:52:05;;;;;;;6.95;3.50;;;;;;;;;;507967;29;1445;-74
2022/03/15 00:52:20;;;;;;;7.13;3.65;;;;;;;;;;507637;29;936;-74
2022/03/15 00:52:36;;;;;;;7.20;3.67;;;;;;;;;;508015;29;715;-75
2022/03/15 00:52:53;;;;;;;8.73;3.60;;;;;;;;;;507518;29;1373;-75
2022/03/15 00:53:10;;;;;;;9.85;3.60;;;;;;;;;;505569;29;1582;-75
2022/03/15 00:53:25;;;;;;;8.68;3.80;;;;;;;;;;507048;29;987;-75
2022/03/15 00:53:41;;;;;;;7.53;3.80;;;;;;;;;;506841;29;1195;-74
2022/03/15 00:53:57;;;;;;;8.05;3.53;;;;;;;;;;507962;29;857;-74
2022/03/15 00:54:12;;;;;;;7.95;3.75;;;;;;;;;;508313;29;770;-75
2022/03/15 00:54:28;;;;;;;7.07;3.80;;;;;;;;;;510141;29;856;-74
2022/03/15 00:54:43;;;;;;;6.95;3.72;;;;;;;;;;510541;29;944;-75
2022/03/15 00:54:59;;;;;;;6.57;3.67;;;;;;;;;;511961;28;758;-75
2022/03/15 00:55:15;;;;;;;6.85;3.58;;;;;;;;;;514177;28;856;-75
2022/03/15 00:55:31;;;;;;;7.57;3.63;;;;;;;;;;513599;28;813;-75
2022/03/15 00:55:46;;;;;;;7.13;3.70;;;;;;;;;;512178;29;794;-75
2022/03/15 00:56:02;;;;;;;6.30;3.50;;;;;;;;;;512122;28;734;-75
2022/03/15 00:56:19;;;;;;;6.60;3.53;;;;;;;;;;511959;29;1674;-75
2022/03/15 00:56:34;;;;;;;8.25;3.83;;;;;;;;;;512117;29;801;-75
2022/03/15 00:56:50;;;;;;;7.37;3.93;;;;;;;;;;510132;29;1295;-75
2022/03/15 00:57:06;;;;;;;6.03;3.60;;;;;;;;;;509986;29;974;-75
2022/03/15 00:57:21;;;;;;;6.60;3.50;;;;;;;;;;509743;29;841;-75
2022/03/15 00:57:37;;;;;;;6.97;3.63;;;;;;;;;;509880;29;1336;-75
2022/03/15 00:57:52;;;;;;;7.13;3.80;;;;;;;;;;510073;29;836;-75
2022/03/15 00:58:10;;;;;;;7.37;3.70;;;;;;;;;;509829;29;1540;-74
2022/03/15 00:58:25;;;;;;;6.65;3.33;;;;;;;;;;510284;29;903;-74
2022/03/15 00:58:40;;;;;;;6.33;3.30;;;;;;;;;;511107;28;766;-75
2022/03/15 00:58:56;;;;;;;7.38;3.60;;;;;;;;;;511784;29;1163;-74
2022/03/15 00:59:11;;;;;;;7.30;3.70;;;;;;;;;;511589;29;940;-75
2022/03/15 00:59:26;;;;;;;6.60;3.47;;;;;;;;;;510571;29;849;-75
2022/03/15 00:59:41;;;;;;;9.02;3.58;;;;;;;;;;509956;29;1339;-75
2022/03/15 00:59:57;;;;;;;8.80;3.80;;;;;;;;;;509341;29;828;-75
2022/03/15 01:00:14;;;;;;;6.97;3.72;;;;;;;;;;509872;29;801;-74
2022/03/15 01:00:31;;;;;;;7.18;3.67;;;;;;;;;;512103;29;815;-75
2022/03/15 01:00:48;;;;;;;6.75;3.60;;;;;;;;;;510449;29;1541;-75
2022/03/15 01:01:03;;;;;;;5.38;3.20;;;;;;;;;;511473;29;817;-74
2022/03/15 01:01:19;;;;;;;5.07;3.20;;;;;;;;;;509664;29;1198;-74
2022/03/15 01:01:35;;;;;;;6.07;3.57;;;;;;;;;;510341;29;825;-75
2022/03/15 01:01:50;;;;;;;7.00;3.58;;;;;;;;;;509839;29;1415;-75
2022/03/15 01:02:05;;;;;;;7.93;3.30;;;;;;;;;;509610;29;1212;-74
2022/03/15 01:02:21;;;;;;;7.67;3.40;;;;;;;;;;509550;29;884;-75
2022/03/15 01:02:36;;;;;;;6.33;3.40;;;;;;;;;;508032;29;1187;-75
2022/03/15 01:02:51;;;;;;;6.50;3.57;;;;;;;;;;508713;29;1380;-74
2022/03/15 01:03:07;;;;;;;5.93;3.43;;;;;;;;;;509056;29;1444;-75
2022/03/15 01:03:22;;;;;;;6.60;3.40;;;;;;;;;;509026;29;1574;-75
2022/03/15 01:03:37;;;;;;;6.67;3.60;;;;;;;;;;509978;29;805;-75
2022/03/15 01:03:53;;;;;;;5.47;3.50;;;;;;;;;;511909;28;755;-75
2022/03/15 01:04:08;;;;;;;5.75;3.30;;;;;;;;;;513572;28;765;-74
2022/03/15 01:04:24;;;;;;;7.97;3.63;;;;;;;;;;510230;29;1236;-74
2022/03/15 01:04:39;;;;;;;8.00;3.53;;;;;;;;;;511814;29;809;-74
2022/03/15 01:04:55;;;;;;;7.17;3.40;;;;;;;;;;509306;29;1134;-75
2022/03/15 01:05:10;;;;;;;6.83;3.50;;;;;;;;;;509935;29;861;-75
2022/03/15 01:05:25;;;;;;;6.03;3.60;;;;;;;;;;511014;29;770;-75
2022/03/15 01:05:41;;;;;;;6.40;3.60;;;;;;;;;;511696;29;1974;-74
2022/03/15 01:05:58;;;;;;;6.40;3.30;;;;;;;;;;511738;29;746;-75
2022/03/15 01:06:13;;;;;;;7.25;3.45;;;;;;;;;;512302;28;904;-75
2022/03/15 01:06:28;;;;;;;7.88;3.60;;;;;;;;;;514078;28;955;-75
2022/03/15 01:06:44;;;;;;;7.00;3.60;;;;;;;;;;513885;28;722;-75
2022/03/15 01:06:59;;;;;;;7.13;3.63;;;;;;;;;;514059;28;936;-75
2022/03/15 01:07:14;;;;;;;7.20;3.57;;;;;;;;;;511821;29;1189;-75
2022/03/15 01:07:30;;;;;;;7.63;3.70;;;;;;;;;;511925;28;987;-75
2022/03/15 01:07:45;;;;;;;9.02;3.85;;;;;;;;;;513965;28;829;-75
2022/03/15 01:08:00;;;;;;;7.93;3.50;;;;;;;;;;512094;29;1146;-75
2022/03/15 01:08:16;;;;;;;6.47;3.43;;;;;;;;;;510897;29;1576;-75
2022/03/15 01:08:31;;;;;;;6.03;3.53;;;;;;;;;;510033;29;1290;-75
2022/03/15 01:08:46;;;;;;;6.80;3.53;;;;;;;;;;507910;29;1156;-75
2022/03/15 01:09:02;;;;;;;9.53;3.90;;;;;;;;;;508261;29;742;-75
2022/03/15 01:09:17;;;;;;;10.88;4.10;;;;;;;;;;507921;29;1163;-76
2022/03/15 01:09:35;;;;;;;8.70;3.90;;;;;;;;;;507624;29;845;-75
2022/03/15 01:09:50;;;;;;;6.88;3.85;;;;;;;;;;505995;29;1345;-75
2022/03/15 01:10:07;;;;;;;6.93;3.67;;;;;;;;;;508052;29;1083;-75
2022/03/15 01:10:23;;;;;;;6.30;3.53;;;;;;;;;;508144;29;953;-75
2022/03/15 01:10:38;;;;;;;7.80;3.72;;;;;;;;;;506799;29;1417;-75
2022/03/15 01:10:54;;;;;;;8.55;3.70;;;;;;;;;;508052;29;1317;-75
2022/03/15 01:11:09;;;;;;;8.30;3.70;;;;;;;;;;506508;29;1283;-75
2022/03/15 01:11:25;;;;;;;8.15;3.70;;;;;;;;;;505818;29;1313;-75
2022/03/15 01:11:40;;;;;;;6.87;3.50;;;;;;;;;;506059;29;813;-75
2022/03/15 01:11:56;;;;;;;6.10;3.40;;;;;;;;;;506590;29;1260;-75
2022/03/15 01:12:11;;;;;;;6.07;3.53;;;;;;;;;;506114;29;1388;-75
2022/03/15 01:12:27;;;;;;;8.10;3.80;;;;;;;;;;506251;29;1349;-75
2022/03/15 01:12:42;;;;;;;8.33;3.97;;;;;;;;;;508178;29;1368;-75
2022/03/15 01:12:57;;;;;;;7.15;3.72;;;;;;;;;;508275;29;726;-75
2022/03/15 01:13:14;;;;;;;6.60;3.50;;;;;;;;;;509530;29;1552;-74
2022/03/15 01:13:29;;;;;;;5.60;3.50;;;;;;;;;;510998;29;857;-75
2022/03/15 01:13:44;;;;;;;5.90;3.50;;;;;;;;;;507952;29;1163;-75
2022/03/15 01:13:59;;;;;;;8.10;3.70;;;;;;;;;;507317;29;1291;-75
2022/03/15 01:14:15;;;;;;;8.23;3.80;;;;;;;;;;507921;29;953;-74
2022/03/15 01:14:30;;;;;;;6.75;3.80;;;;;;;;;;508427;29;793;-75
2022/03/15 01:14:46;;;;;;;6.43;4.00;;;;;;;;;;507700;29;1344;-75
2022/03/15 01:15:01;;;;;;;5.97;3.90;;;;;;;;;;507892;29;1199;-75
2022/03/15 01:15:16;;;;;;;6.82;3.70;;;;;;;;;;507986;29;1316;-75
2022/03/15 01:15:39;;;;;;;7.73;3.60;;;;;;;;;;508021;29;773;-75
2022/03/15 01:15:54;;;;;;;7.18;3.90;;;;;;;;;;508691;29;711;-75
2022/03/15 01:16:09;;;;;;;8.63;4.03;;;;;;;;;;509987;29;767;-75
2022/03/15 01:16:25;;;;;;;9.80;3.97;;;;;;;;;;509865;29;706;-75
2022/03/15 01:16:40;;;;;;;9.37;3.90;;;;;;;;;;508661;29;1179;-75
2022/03/15 01:16:56;;;;;;;7.75;3.80;;;;;;;;;;511069;29;746;-75
2022/03/15 01:17:11;;;;;;;6.87;3.77;;;;;;;;;;510200;29;1302;-75
2022/03/15 01:17:26;;;;;;;7.45;3.80;;;;;;;;;;509670;29;1302;-74
2022/03/15 01:17:42;;;;;;;7.43;3.77;;;;;;;;;;509659;29;1193;-75
2022/03/15 01:17:57;;;;;;;7.23;3.67;;;;;;;;;;509707;29;924;-75
2022/03/15 01:18:13;;;;;;;7.43;3.63;;;;;;;;;;509211;29;1468;-75
2022/03/15 01:18:30;;;;;;;7.65;3.80;;;;;;;;;;509977;29;1030;-75
2022/03/15 01:18:45;;;;;;;7.03;3.65;;;;;;;;;;509875;29;1546;-74
2022/03/15 01:19:00;;;;;;;8.77;3.77;;;;;;;;;;510303;29;922;-75
2022/03/15 01:19:16;;;;;;;10.23;4.10;;;;;;;;;;509566;29;1179;-74
2022/03/15 01:19:31;;;;;;;9.10;4.10;;;;;;;;;;509581;29;861;-75
2022/03/15 01:19:47;;;;;;;7.80;3.87;;;;;;;;;;510530;29;1407;-74
2022/03/15 01:20:08;;;;;;;8.57;3.78;;;;;;;;;;511501;29;861;-75
2022/03/15 01:20:23;;;;;;;8.05;3.92;;;;;;;;;;511903;29;852;-74
2022/03/15 01:20:40;;;;;;;8.50;4.07;;;;;;;;;;512018;29;770;-75
2022/03/15 01:20:56;;;;;;;7.97;4.07;;;;;;;;;;511257;29;881;-74
2022/03/15 01:21:14;;;;;;;8.60;4.17;;;;;;;;;;512193;29;828;-74
2022/03/15 01:21:31;;;;;;;8.45;4.00;;;;;;;;;;512180;29;860;-74
2022/03/15 01:21:46;;;;;;;6.90;3.60;;;;;;;;;;511947;29;1040;-74
2022/03/15 01:22:02;;;;;;;7.73;3.60;;;;;;;;;;511859;28;722;-75
2022/03/15 01:22:18;;;;;;;8.18;3.80;;;;;;;;;;512120;28;1046;-75
2022/03/15 01:22:33;;;;;;;7.63;3.75;;;;;;;;;;511821;29;1209;-75
2022/03/15 01:22:48;;;;;;;7.60;3.93;;;;;;;;;;513526;28;948;-75
2022/03/15 01:23:04;;;;;;;6.90;3.88;;;;;;;;;;513958;28;737;-75
2022/03/15 01:23:19;;;;;;;6.80;3.63;;;;;;;;;;513231;28;1554;-75
2022/03/15 01:23:34;;;;;;;7.10;3.60;;;;;;;;;;511918;29;1174;-74
2022/03/15 01:23:49;;;;;;;6.73;3.80;;;;;;;;;;511902;29;763;-74
2022/03/15 01:24:07;;;;;;;6.00;3.83;;;;;;;;;;511165;29;991;-74
2022/03/15 01:24:22;;;;;;;6.40;3.90;;;;;;;;;;511807;29;813;-74
2022/03/15 01:24:37;;;;;;;6.67;3.80;;;;;;;;;;511182;29;719;-75
2022/03/15 01:24:53;;;;;;;6.63;3.60;;;;;;;;;;511324;29;1205;-75
2022/03/15 01:25:08;;;;;;;7.27;3.70;;;;;;;;;;512030;29;750;-74
2022/03/15 01:25:23;;;;;;;7.13;3.80;;;;;;;;;;513187;28;821;-75
2022/03/15 01:25:39;;;;;;;6.40;3.80;;;;;;;;;;513681;28;1968;-74
2022/03/15 01:25:55;;;;;;;6.80;3.80;;;;;;;;;;513824;28;750;-75
2022/03/15 01:26:10;;;;;;;8.33;4.13;;;;;;;;;;511443;29;1210;-74
2022/03/15 01:26:26;;;;;;;8.25;4.30;;;;;;;;;;511943;29;1370;-75
2022/03/15 01:26:42;;;;;;;7.40;3.77;;;;;;;;;;511915;29;941;-75
2022/03/15 01:26:58;;;;;;;7.45;3.80;;;;;;;;;;512159;29;881;-75
2022/03/15 01:27:15;;;;;;;7.20;4.10;;;;;;;;;;512169;28;758;-74
2022/03/15 01:27:30;;;;;;;6.93;4.07;;;;;;;;;;511493;29;984;-74
2022/03/15 01:27:46;;;;;;;7.17;3.90;;;;;;;;;;511849;29;841;-75
2022/03/15 01:28:01;;;;;;;7.40;3.90;;;;;;;;;;512646;28;987;-75
2022/03/15 01:28:16;;;;;;;7.53;3.80;;;;;;;;;;511796;28;1559;-74
2022/03/15 01:28:32;;;;;;;8.47;3.90;;;;;;;;;;511919;28;1446;-74
2022/03/15 01:28:47;;;;;;;8.53;4.00;;;;;;;;;;512179;28;1197;-74
2022/03/15 01:29:02;;;;;;;7.63;3.87;;;;;;;;;;511814;29;758;-75
2022/03/15 01:29:20;;;;;;;7.70;3.90;;;;;;;;;;512768;28;932;-74
2022/03/15 01:29:35;;;;;;;9.15;4.20;;;;;;;;;;513631;28;777;-75
2022/03/15 01:29:50;;;;;;;9.23;4.10;;;;;;;;;;513106;28;991;-75
2022/03/15 01:30:06;;;;;;;7.73;4.00;;;;;;;;;;513833;28;904;-75
2022/03/15 01:30:23;;;;;;;7.47;4.00;;;;;;;;;;512540;28;777;-75
2022/03/15 01:30:38;;;;;;;7.05;3.90;;;;;;;;;;511850;29;1404;-75
2022/03/15 01:30:53;;;;;;;7.20;3.80;;;;;;;;;;511799;29;853;-74
2022/03/15 01:31:09;;;;;;;7.73;3.80;;;;;;;;;;511669;29;797;-75
2022/03/15 01:31:24;;;;;;;7.65;3.97;;;;;;;;;;509850;29;1206;-75
2022/03/15 01:31:40;;;;;;;7.63;4.07;;;;;;;;;;509720;29;754;-74
2022/03/15 01:31:55;;;;;;;6.95;3.90;;;;;;;;;;508067;29;1291;-75
2022/03/15 01:32:10;;;;;;;6.57;3.73;;;;;;;;;;507977;29;801;-75
2022/03/15 01:32:26;;;;;;;6.70;3.90;;;;;;;;;;507647;29;817;-75
2022/03/15 01:32:41;;;;;;;6.00;3.80;;;;;;;;;;508092;29;1540;-75
2022/03/15 01:32:56;;;;;;;6.00;3.80;;;;;;;;;;508813;29;1432;-75
2022/03/15 01:33:12;;;;;;;6.23;3.97;;;;;;;;;;507944;29;1478;-75
2022/03/15 01:33:27;;;;;;;6.22;3.80;;;;;;;;;;510926;29;857;-75
2022/03/15 01:33:42;;;;;;;7.03;3.83;;;;;;;;;;508678;29;1172;-75
2022/03/15 01:33:58;;;;;;;7.53;4.10;;;;;;;;;;511497;29;1149;-75
2022/03/15 01:34:14;;;;;;;7.32;4.18;;;;;;;;;;511757;29;782;-74
2022/03/15 01:34:29;;;;;;;7.70;3.95;;;;;;;;;;507690;29;1333;-75
2022/03/15 01:34:44;;;;;;;7.07;3.67;;;;;;;;;;508257;29;1240;-75
2022/03/15 01:35:00;;;;;;;7.88;3.88;;;;;;;;;;509616;29;929;-75
2022/03/15 01:35:15;;;;;;;8.63;3.90;;;;;;;;;;509870;29;793;-75
2022/03/15 01:35:31;;;;;;;7.77;3.83;;;;;;;;;;511927;29;1166;-74
2022/03/15 01:35:46;;;;;;;7.65;3.92;;;;;;;;;;511908;29;790;-74
2022/03/15 01:36:02;;;;;;;7.20;3.93;;;;;;;;;;511856;29;861;-74
2022/03/15 01:36:17;;;;;;;7.72;3.80;;;;;;;;;;512212;28;691;-74
2022/03/15 01:36:32;;;;;;;7.90;3.80;;;;;;;;;;513662;28;1284;-74
2022/03/15 01:36:48;;;;;;;7.20;4.03;;;;;;;;;;515656;28;777;-74
2022/03/15 01:37:03;;;;;;;7.53;3.90;;;;;;;;;;515969;28;975;-74
2022/03/15 01:37:19;;;;;;;7.63;3.70;;;;;;;;;;513776;28;1118;-75
2022/03/15 01:37:34;;;;;;;8.20;3.90;;;;;;;;;;513905;28;798;-74
2022/03/15 01:37:49;;;;;;;7.57;3.87;;;;;;;;;;511835;29;1277;-74
2022/03/15 01:38:05;;;;;;;6.38;3.80;;;;;;;;;;511900;29;829;-75
2022/03/15 01:38:20;;;;;;;6.67;3.80;;;;;;;;;;509209;29;1556;-75